Time;durP1;ratioP1;P1;durP2;ratioP2;P2;SDS_P1;SDS_P2;PMS_P1;PMS_P2;Temp;Humidity;BMP_temperature;BMP_pressure;BME280_temperature;BME280_humidity;BME280_pressure;Samples;Min_cycle;Max_cycle;Signal;HPM_P1;HPM_P2
2021/01/15 20:31:01;;;;;;;10.30;7.20;;;0.40;99.90;;;;;;5148414;27;20556;-89
2021/01/15 20:33:28;;;;;;;12.60;8.10;;;-0.20;99.90;;;;;;5147667;27;20468;-89
2021/01/15 20:35:54;;;;;;;13.10;8.73;;;-0.20;99.90;;;;;;5105397;27;20476;-88
2021/01/15 20:38:21;;;;;;;13.33;7.77;;;-0.90;99.90;;;;;;5073311;28;20937;-88
2021/01/15 20:40:47;;;;;;;11.47;7.97;;;0.40;99.90;;;;;;5072670;28;21040;-89
2021/01/15 20:43:13;;;;;;;14.90;8.87;;;0.00;99.90;;;;;;5073289;28;21084;-88
2021/01/15 20:45:40;;;;;;;14.93;9.77;;;;;;;;;;5072845;28;20958;-93
2021/01/15 20:48:07;;;;;;;13.53;9.00;;;0.30;99.90;;;;;;5076160;28;20496;-90
2021/01/15 20:50:34;;;;;;;13.27;8.33;;;;;;;;;;5070866;28;20497;-87
2021/01/15 20:53:01;;;;;;;14.70;8.67;;;0.00;99.90;;;;;;5071720;28;20458;-89
2021/01/15 20:55:28;;;;;;;13.90;8.80;;;;;;;;;;5072229;28;20854;-90
2021/01/15 20:57:56;;;;;;;11.40;8.07;;;0.20;99.90;;;;;;5072313;28;20494;-92
2021/01/15 21:00:23;;;;;;;12.00;8.30;;;0.10;99.90;;;;;;5070563;28;20458;-88
2021/01/15 21:03:00;;;;;;;18.73;11.03;;;-0.10;99.90;;;;;;5072282;28;20449;-87
2021/01/15 21:05:28;;;;;;;16.00;11.00;;;0.20;99.90;;;;;;5069430;28;20468;-89
2021/01/15 21:07:54;;;;;;;18.80;11.10;;;0.10;99.90;;;;;;5072814;28;20454;-89
2021/01/15 21:10:21;;;;;;;16.70;10.40;;;0.00;99.90;;;;;;5072889;28;20493;-88
2021/01/15 21:12:47;;;;;;;14.77;10.40;;;0.20;99.90;;;;;;5070723;28;20450;-90
2021/01/15 21:15:14;;;;;;;11.40;9.13;;;0.30;99.90;;;;;;5075469;28;20461;-94
2021/01/15 21:17:40;;;;;;;15.57;8.80;;;;;;;;;;5078817;28;20450;-92
2021/01/15 21:20:08;;;;;;;14.50;9.17;;;-0.20;99.90;;;;;;5075542;28;20457;-89
2021/01/15 21:22:35;;;;;;;15.23;9.43;;;0.10;99.90;;;;;;5071963;28;20507;-87
2021/01/15 21:25:01;;;;;;;14.37;9.80;;;0.20;99.90;;;;;;5070650;28;20442;-88
2021/01/15 21:27:28;;;;;;;15.90;9.23;;;;;;;;;;5070789;28;20519;-89
2021/01/15 21:29:54;;;;;;;12.47;8.80;;;;;;;;;;5073953;28;20551;-91
2021/01/15 21:32:20;;;;;;;13.47;9.03;;;-0.20;99.90;;;;;;5073753;28;20805;-90
2021/01/15 21:34:47;;;;;;;13.57;9.43;;;0.00;99.90;;;;;;5074649;28;20520;-94
2021/01/15 21:37:14;;;;;;;12.77;8.93;;;;;;;;;;5071604;28;20446;-88
2021/01/15 21:39:41;;;;;;;13.17;9.87;;;0.00;99.90;;;;;;5070676;28;20473;-88
2021/01/15 21:42:08;;;;;;;12.03;8.90;;;;;;;;;;5057166;28;20442;-89
2021/01/15 21:44:34;;;;;;;17.07;10.07;;;-0.20;99.90;;;;;;5052467;28;20458;-88
2021/01/15 21:47:01;;;;;;;14.03;9.77;;;;;;;;;;5055383;28;20438;-86
2021/01/15 21:49:27;;;;;;;16.80;8.90;;;-0.50;99.90;;;;;;5055572;28;20489;-87
2021/01/15 21:51:55;;;;;;;15.93;10.90;;;;;;;;;;5055636;28;20463;-88
2021/01/15 21:54:22;;;;;;;11.43;8.37;;;-0.10;99.90;;;;;;5055450;28;20466;-88
2021/01/15 21:56:49;;;;;;;16.50;10.10;;;-0.10;99.90;;;;;;5055479;28;20454;-86
2021/01/15 21:59:15;;;;;;;17.37;8.70;;;;;;;;;;5056079;28;20462;-90
2021/01/15 22:01:43;;;;;;;15.37;9.37;;;-0.10;99.90;;;;;;5055621;28;20929;-92
2021/01/15 22:04:10;;;;;;;15.00;9.10;;;;;;;;;;5056370;28;20958;-89
2021/01/15 22:06:37;;;;;;;20.57;13.00;;;-0.40;99.90;;;;;;5055476;28;20447;-88
2021/01/15 22:09:04;;;;;;;22.03;12.17;;;0.00;99.90;;;;;;5054971;28;20482;-87
2021/01/15 22:11:30;;;;;;;17.57;10.07;;;-0.50;99.90;;;;;;5054956;28;20454;-88
2021/01/15 22:13:57;;;;;;;15.37;10.00;;;-0.50;99.90;;;;;;5055244;28;20503;-86
2021/01/15 22:16:24;;;;;;;13.93;9.60;;;;;;;;;;5055281;28;20454;-89
2021/01/15 22:18:50;;;;;;;15.20;10.27;;;-0.20;99.90;;;;;;5055151;28;20439;-88
2021/01/15 22:21:17;;;;;;;14.27;9.90;;;-0.30;99.90;;;;;;5053578;28;20512;-86
2021/01/15 22:23:43;;;;;;;14.47;9.60;;;-0.30;99.90;;;;;;5054827;28;20530;-88
2021/01/15 22:26:09;;;;;;;17.60;11.13;;;0.00;99.90;;;;;;5054600;28;20475;-86
2021/01/15 22:28:36;;;;;;;13.50;8.97;;;;;;;;;;5054751;28;20447;-88
2021/01/15 22:31:04;;;;;;;16.50;9.83;;;-0.10;99.90;;;;;;5055657;28;20516;-91
2021/01/15 22:33:31;;;;;;;17.13;11.00;;;;;;;;;;5055803;28;20813;-89
2021/01/15 22:35:57;;;;;;;17.60;10.87;;;;;;;;;;5054124;28;20457;-88
2021/01/15 22:38:26;;;;;;;16.40;10.07;;;-0.10;99.90;;;;;;5055220;28;20882;-91
2021/01/15 22:40:55;;;;;;;16.80;10.93;;;-0.20;99.90;;;;;;5054525;28;20458;-91
2021/01/15 22:43:21;;;;;;;17.80;10.00;;;;;;;;;;5055512;28;20447;-89
2021/01/15 22:45:48;;;;;;;13.90;8.63;;;;;;;;;;5058101;28;20439;-88
2021/01/15 22:48:19;;;;;;;15.57;9.50;;;-0.20;99.90;;;;;;5055157;28;20466;-88
2021/01/15 22:50:46;;;;;;;15.80;9.00;;;0.60;99.90;;;;;;5051550;28;20493;-87
2021/01/15 22:53:13;;;;;;;14.73;9.57;;;;;;;;;;5053347;28;20520;-90
2021/01/15 22:55:39;;;;;;;16.97;10.30;;;-0.20;99.90;;;;;;5054734;28;20504;-90
2021/01/15 22:58:05;;;;;;;15.60;9.73;;;0.60;99.90;;;;;;5055084;28;20466;-90
2021/01/15 23:00:32;;;;;;;18.87;11.00;;;-0.30;99.90;;;;;;5053583;28;20447;-92
2021/01/15 23:02:58;;;;;;;13.93;10.27;;;-0.40;99.90;;;;;;5034549;28;20459;-91
2021/01/15 23:05:26;;;;;;;15.13;9.20;;;-0.30;99.90;;;;;;5033370;28;20805;-89
2021/01/15 23:07:57;;;;;;;14.67;9.53;;;-0.30;99.90;;;;;;5034268;28;20456;-90
2021/01/15 23:10:27;;;;;;;17.70;10.93;;;-0.10;99.90;;;;;;5035426;28;20491;-88
2021/01/15 23:12:53;;;;;;;14.57;9.33;;;-0.50;99.90;;;;;;5031734;28;20467;-87
2021/01/15 23:15:23;;;;;;;17.10;10.97;;;-0.50;99.90;;;;;;5034136;28;20967;-88
2021/01/15 23:17:49;;;;;;;14.13;9.87;;;-0.40;99.90;;;;;;5034424;28;20447;-91
2021/01/15 23:20:16;;;;;;;17.60;10.50;;;-0.30;99.90;;;;;;5035208;28;20451;-88
2021/01/15 23:22:48;;;;;;;15.70;10.60;;;-0.50;99.90;;;;;;5031745;28;20452;-91
2021/01/15 23:25:15;;;;;;;15.33;9.50;;;-0.40;99.90;;;;;;5034140;28;20455;-92
2021/01/15 23:27:42;;;;;;;14.33;9.40;;;;;;;;;;5034472;28;20448;-89
2021/01/15 23:30:11;;;;;;;15.03;10.67;;;-0.60;99.90;;;;;;5035267;28;20503;-89
2021/01/15 23:32:40;;;;;;;14.83;9.43;;;-0.60;99.90;;;;;;5036567;28;20458;-88
2021/01/15 23:35:10;;;;;;;14.73;10.33;;;-0.10;99.90;;;;;;5035263;28;20826;-88
2021/01/15 23:37:37;;;;;;;15.97;9.77;;;;;;;;;;5033554;28;20443;-91
2021/01/15 23:40:06;;;;;;;16.20;10.50;;;-0.10;99.90;;;;;;5034211;28;20837;-88
2021/01/15 23:42:40;;;;;;;20.57;10.57;;;0.00;99.90;;;;;;5041185;28;20454;-90
2021/01/15 23:45:08;;;;;;;19.20;11.37;;;-0.20;99.90;;;;;;5045125;28;20447;-89
2021/01/15 23:47:34;;;;;;;16.57;10.47;;;;;;;;;;5034665;28;20459;-91
2021/01/15 23:50:01;;;;;;;15.10;9.50;;;;;;;;;;5033403;28;20497;-88
2021/01/15 23:52:27;;;;;;;15.70;8.90;;;;;;;;;;5032472;28;20463;-92
2021/01/15 23:54:54;;;;;;;16.40;11.47;;;;;;;;;;5034181;28;20466;-89
2021/01/15 23:57:21;;;;;;;19.10;10.40;;;-0.20;99.90;;;;;;5033578;28;20504;-88
2021/01/15 23:59:47;;;;;;;16.00;10.50;;;;;;;;;;5033889;28;20447;-93
